sensor_id;sensor_type;location;lat;lon;timestamp;P1;durP1;ratioP1;P2;durP2;ratioP2
11453;SDS011;5783;55.174;61.310;2023-02-22T00:01:17;6.97;;;5.90;;
11453;SDS011;5783;55.174;61.310;2023-02-22T00:04:06;7.03;;;5.90;;
11453;SDS011;5783;55.174;61.310;2023-02-22T00:06:39;8.40;;;5.90;;
11453;SDS011;5783;55.174;61.310;2023-02-22T00:09:09;7.10;;;5.83;;
11453;SDS011;5783;55.174;61.310;2023-02-22T00:11:44;6.73;;;6.00;;
11453;SDS011;5783;55.174;61.310;2023-02-22T00:14:30;6.77;;;5.87;;
11453;SDS011;5783;55.174;61.310;2023-02-22T00:16:59;8.87;;;6.77;;
11453;SDS011;5783;55.174;61.310;2023-02-22T00:19:31;6.80;;;6.10;;
11453;SDS011;5783;55.174;61.310;2023-02-22T00:22:00;7.77;;;6.60;;
11453;SDS011;5783;55.174;61.310;2023-02-22T00:24:31;7.60;;;6.37;;
11453;SDS011;5783;55.174;61.310;2023-02-22T00:27:01;6.77;;;6.07;;
11453;SDS011;5783;55.174;61.310;2023-02-22T00:29:30;7.20;;;6.43;;
11453;SDS011;5783;55.174;61.310;2023-02-22T00:32:00;8.10;;;6.40;;
11453;SDS011;5783;55.174;61.310;2023-02-22T00:34:29;7.23;;;6.40;;
11453;SDS011;5783;55.174;61.310;2023-02-22T00:36:58;7.87;;;6.57;;
11453;SDS011;5783;55.174;61.310;2023-02-22T00:39:29;6.93;;;6.23;;
11453;SDS011;5783;55.174;61.310;2023-02-22T00:41:58;8.23;;;6.60;;
11453;SDS011;5783;55.174;61.310;2023-02-22T00:44:27;7.73;;;6.60;;
11453;SDS011;5783;55.174;61.310;2023-02-22T00:46:57;8.43;;;6.70;;
11453;SDS011;5783;55.174;61.310;2023-02-22T00:49:29;7.30;;;6.50;;
11453;SDS011;5783;55.174;61.310;2023-02-22T00:52:00;8.30;;;6.70;;
11453;SDS011;5783;55.174;61.310;2023-02-22T00:54:29;8.70;;;6.60;;
11453;SDS011;5783;55.174;61.310;2023-02-22T00:56:58;7.90;;;6.43;;
11453;SDS011;5783;55.174;61.310;2023-02-22T00:59:28;7.70;;;6.60;;
11453;SDS011;5783;55.174;61.310;2023-02-22T01:01:57;9.00;;;6.90;;
11453;SDS011;5783;55.174;61.310;2023-02-22T01:04:26;8.93;;;6.93;;
11453;SDS011;5783;55.174;61.310;2023-02-22T01:06:55;8.03;;;6.27;;
11453;SDS011;5783;55.174;61.310;2023-02-22T01:09:25;7.37;;;6.30;;
11453;SDS011;5783;55.174;61.310;2023-02-22T01:11:54;7.97;;;6.67;;
11453;SDS011;5783;55.174;61.310;2023-02-22T01:14:24;9.53;;;6.67;;
11453;SDS011;5783;55.174;61.310;2023-02-22T01:16:54;8.60;;;7.27;;
11453;SDS011;5783;55.174;61.310;2023-02-22T01:19:24;8.73;;;6.57;;
11453;SDS011;5783;55.174;61.310;2023-02-22T01:21:53;7.97;;;6.60;;
11453;SDS011;5783;55.174;61.310;2023-02-22T01:24:23;8.10;;;6.70;;
11453;SDS011;5783;55.174;61.310;2023-02-22T01:26:53;9.67;;;6.90;;
11453;SDS011;5783;55.174;61.310;2023-02-22T01:29:22;8.07;;;6.40;;
11453;SDS011;5783;55.174;61.310;2023-02-22T01:31:52;7.87;;;6.67;;
11453;SDS011;5783;55.174;61.310;2023-02-22T01:34:23;8.10;;;6.63;;
11453;SDS011;5783;55.174;61.310;2023-02-22T01:36:52;8.20;;;6.63;;
11453;SDS011;5783;55.174;61.310;2023-02-22T01:39:21;7.90;;;6.43;;
11453;SDS011;5783;55.174;61.310;2023-02-22T01:41:50;8.30;;;6.57;;
11453;SDS011;5783;55.174;61.310;2023-02-22T01:47:08;8.67;;;7.03;;
11453;SDS011;5783;55.174;61.310;2023-02-22T01:49:39;7.57;;;6.33;;
11453;SDS011;5783;55.174;61.310;2023-02-22T01:52:11;7.73;;;6.20;;
11453;SDS011;5783;55.174;61.310;2023-02-22T01:55:00;7.80;;;6.50;;
11453;SDS011;5783;55.174;61.310;2023-02-22T01:57:31;7.80;;;6.50;;
11453;SDS011;5783;55.174;61.310;2023-02-22T02:02:54;7.80;;;6.40;;
11453;SDS011;5783;55.174;61.310;2023-02-22T02:05:25;6.87;;;5.97;;
11453;SDS011;5783;55.174;61.310;2023-02-22T02:07:56;7.93;;;6.87;;
11453;SDS011;5783;55.174;61.310;2023-02-22T02:10:30;7.43;;;6.30;;
11453;SDS011;5783;55.174;61.310;2023-02-22T02:12:59;8.20;;;6.63;;
11453;SDS011;5783;55.174;61.310;2023-02-22T02:15:30;7.97;;;6.60;;
11453;SDS011;5783;55.174;61.310;2023-02-22T02:18:02;7.60;;;6.20;;
11453;SDS011;5783;55.174;61.310;2023-02-22T02:37:56;7.97;;;6.63;;
11453;SDS011;5783;55.174;61.310;2023-02-22T02:46:45;8.97;;;7.03;;
11453;SDS011;5783;55.174;61.310;2023-02-22T02:52:26;9.03;;;7.00;;
11453;SDS011;5783;55.174;61.310;2023-02-22T02:54:58;8.43;;;6.50;;
11453;SDS011;5783;55.174;61.310;2023-02-22T02:57:30;8.40;;;7.00;;
11453;SDS011;5783;55.174;61.310;2023-02-22T03:00:00;7.67;;;6.70;;
11453;SDS011;5783;55.174;61.310;2023-02-22T03:12:13;8.03;;;6.90;;
11453;SDS011;5783;55.174;61.310;2023-02-22T03:22:30;8.27;;;7.13;;
11453;SDS011;5783;55.174;61.310;2023-02-22T03:28:10;9.03;;;7.00;;
11453;SDS011;5783;55.174;61.310;2023-02-22T03:30:44;8.97;;;6.90;;
11453;SDS011;5783;55.174;61.310;2023-02-22T03:36:10;8.37;;;7.07;;
11453;SDS011;5783;55.174;61.310;2023-02-22T03:38:58;7.37;;;6.37;;
11453;SDS011;5783;55.174;61.310;2023-02-22T03:41:29;8.23;;;6.57;;
11453;SDS011;5783;55.174;61.310;2023-02-22T03:44:04;9.00;;;7.23;;
11453;SDS011;5783;55.174;61.310;2023-02-22T03:46:35;7.67;;;6.77;;
11453;SDS011;5783;55.174;61.310;2023-02-22T03:52:20;8.13;;;6.77;;
11453;SDS011;5783;55.174;61.310;2023-02-22T03:54:50;8.77;;;6.70;;
11453;SDS011;5783;55.174;61.310;2023-02-22T04:00:12;7.77;;;6.57;;
11453;SDS011;5783;55.174;61.310;2023-02-22T04:02:43;7.77;;;6.53;;
11453;SDS011;5783;55.174;61.310;2023-02-22T04:05:14;7.70;;;6.90;;
11453;SDS011;5783;55.174;61.310;2023-02-22T04:07:43;8.57;;;6.83;;
11453;SDS011;5783;55.174;61.310;2023-02-22T04:10:14;7.30;;;6.53;;
11453;SDS011;5783;55.174;61.310;2023-02-22T04:12:43;8.07;;;6.63;;
11453;SDS011;5783;55.174;61.310;2023-02-22T04:15:15;8.63;;;6.97;;
11453;SDS011;5783;55.174;61.310;2023-02-22T04:17:45;8.63;;;7.17;;
11453;SDS011;5783;55.174;61.310;2023-02-22T04:20:14;7.67;;;6.70;;
11453;SDS011;5783;55.174;61.310;2023-02-22T04:23:03;9.33;;;6.70;;
11453;SDS011;5783;55.174;61.310;2023-02-22T04:25:32;8.13;;;7.07;;
11453;SDS011;5783;55.174;61.310;2023-02-22T04:28:02;8.43;;;6.87;;
11453;SDS011;5783;55.174;61.310;2023-02-22T04:30:31;10.17;;;6.90;;
11453;SDS011;5783;55.174;61.310;2023-02-22T04:33:00;8.50;;;6.97;;
11453;SDS011;5783;55.174;61.310;2023-02-22T04:35:29;8.83;;;7.20;;
11453;SDS011;5783;55.174;61.310;2023-02-22T04:37:59;9.07;;;7.37;;
11453;SDS011;5783;55.174;61.310;2023-02-22T04:40:29;9.53;;;7.70;;
11453;SDS011;5783;55.174;61.310;2023-02-22T04:42:58;10.50;;;8.20;;
11453;SDS011;5783;55.174;61.310;2023-02-22T04:45:27;9.20;;;7.50;;
11453;SDS011;5783;55.174;61.310;2023-02-22T04:47:58;10.20;;;7.93;;
11453;SDS011;5783;55.174;61.310;2023-02-22T04:50:27;10.70;;;8.23;;
11453;SDS011;5783;55.174;61.310;2023-02-22T04:52:56;10.80;;;8.23;;
11453;SDS011;5783;55.174;61.310;2023-02-22T04:55:25;9.63;;;7.97;;
11453;SDS011;5783;55.174;61.310;2023-02-22T04:57:55;11.10;;;8.30;;
11453;SDS011;5783;55.174;61.310;2023-02-22T05:00:24;10.27;;;8.73;;
11453;SDS011;5783;55.174;61.310;2023-02-22T05:02:53;18.20;;;11.17;;
11453;SDS011;5783;55.174;61.310;2023-02-22T05:05:23;16.93;;;10.27;;
11453;SDS011;5783;55.174;61.310;2023-02-22T05:07:52;15.40;;;10.83;;
11453;SDS011;5783;55.174;61.310;2023-02-22T05:10:21;18.67;;;12.73;;
11453;SDS011;5783;55.174;61.310;2023-02-22T05:12:50;19.63;;;12.60;;
11453;SDS011;5783;55.174;61.310;2023-02-22T05:15:20;19.50;;;12.77;;
11453;SDS011;5783;55.174;61.310;2023-02-22T05:17:50;23.97;;;14.50;;
11453;SDS011;5783;55.174;61.310;2023-02-22T05:20:22;24.40;;;14.77;;
11453;SDS011;5783;55.174;61.310;2023-02-22T05:23:10;25.90;;;15.10;;
11453;SDS011;5783;55.174;61.310;2023-02-22T05:25:40;23.47;;;14.63;;
11453;SDS011;5783;55.174;61.310;2023-02-22T05:28:11;25.43;;;16.00;;
11453;SDS011;5783;55.174;61.310;2023-02-22T05:30:42;27.97;;;16.40;;
11453;SDS011;5783;55.174;61.310;2023-02-22T05:33:11;25.80;;;16.03;;
11453;SDS011;5783;55.174;61.310;2023-02-22T05:35:40;29.53;;;15.23;;
11453;SDS011;5783;55.174;61.310;2023-02-22T05:38:11;27.63;;;16.40;;
11453;SDS011;5783;55.174;61.310;2023-02-22T05:40:42;26.17;;;16.00;;
11453;SDS011;5783;55.174;61.310;2023-02-22T05:43:11;28.00;;;15.60;;
11453;SDS011;5783;55.174;61.310;2023-02-22T05:45:40;26.47;;;16.27;;
11453;SDS011;5783;55.174;61.310;2023-02-22T05:48:10;24.23;;;16.23;;
11453;SDS011;5783;55.174;61.310;2023-02-22T05:50:39;28.43;;;16.40;;
11453;SDS011;5783;55.174;61.310;2023-02-22T05:53:09;25.93;;;15.63;;
11453;SDS011;5783;55.174;61.310;2023-02-22T05:55:38;24.33;;;15.23;;
11453;SDS011;5783;55.174;61.310;2023-02-22T05:58:07;23.67;;;14.53;;
11453;SDS011;5783;55.174;61.310;2023-02-22T06:00:36;25.77;;;15.43;;
11453;SDS011;5783;55.174;61.310;2023-02-22T06:03:06;24.40;;;15.17;;
11453;SDS011;5783;55.174;61.310;2023-02-22T06:05:43;22.63;;;15.33;;
11453;SDS011;5783;55.174;61.310;2023-02-22T06:08:12;25.53;;;15.33;;
11453;SDS011;5783;55.174;61.310;2023-02-22T06:10:43;23.60;;;14.97;;
11453;SDS011;5783;55.174;61.310;2023-02-22T06:13:12;25.10;;;14.60;;
11453;SDS011;5783;55.174;61.310;2023-02-22T06:15:41;21.83;;;14.33;;
11453;SDS011;5783;55.174;61.310;2023-02-22T06:18:10;21.70;;;13.53;;
11453;SDS011;5783;55.174;61.310;2023-02-22T06:20:39;22.27;;;14.80;;
11453;SDS011;5783;55.174;61.310;2023-02-22T06:23:09;26.20;;;14.87;;
11453;SDS011;5783;55.174;61.310;2023-02-22T06:25:38;21.40;;;14.30;;
11453;SDS011;5783;55.174;61.310;2023-02-22T06:28:07;22.67;;;14.27;;
11453;SDS011;5783;55.174;61.310;2023-02-22T06:30:36;23.77;;;14.87;;
11453;SDS011;5783;55.174;61.310;2023-02-22T06:33:09;23.87;;;15.27;;
11453;SDS011;5783;55.174;61.310;2023-02-22T06:35:38;24.47;;;15.57;;
11453;SDS011;5783;55.174;61.310;2023-02-22T06:38:08;24.53;;;15.37;;
11453;SDS011;5783;55.174;61.310;2023-02-22T06:40:37;27.97;;;15.90;;
11453;SDS011;5783;55.174;61.310;2023-02-22T06:43:06;22.80;;;14.97;;
11453;SDS011;5783;55.174;61.310;2023-02-22T06:45:36;24.90;;;16.57;;
11453;SDS011;5783;55.174;61.310;2023-02-22T06:48:06;25.57;;;16.87;;
11453;SDS011;5783;55.174;61.310;2023-02-22T06:50:36;26.77;;;16.23;;
11453;SDS011;5783;55.174;61.310;2023-02-22T06:53:05;23.47;;;16.00;;
11453;SDS011;5783;55.174;61.310;2023-02-22T06:55:36;23.37;;;16.57;;
11453;SDS011;5783;55.174;61.310;2023-02-22T06:58:05;26.97;;;17.07;;
11453;SDS011;5783;55.174;61.310;2023-02-22T07:00:34;24.83;;;17.70;;
11453;SDS011;5783;55.174;61.310;2023-02-22T07:03:03;25.80;;;17.80;;
11453;SDS011;5783;55.174;61.310;2023-02-22T07:05:38;28.93;;;18.73;;
11453;SDS011;5783;55.174;61.310;2023-02-22T07:08:09;28.07;;;18.13;;
11453;SDS011;5783;55.174;61.310;2023-02-22T07:10:39;27.67;;;18.50;;
11453;SDS011;5783;55.174;61.310;2023-02-22T07:13:08;31.10;;;18.10;;
11453;SDS011;5783;55.174;61.310;2023-02-22T07:15:38;31.37;;;18.20;;
11453;SDS011;5783;55.174;61.310;2023-02-22T07:18:07;24.57;;;16.97;;
11453;SDS011;5783;55.174;61.310;2023-02-22T07:20:37;25.70;;;17.43;;
11453;SDS011;5783;55.174;61.310;2023-02-22T07:23:06;27.40;;;16.67;;
11453;SDS011;5783;55.174;61.310;2023-02-22T07:25:36;23.93;;;16.43;;
11453;SDS011;5783;55.174;61.310;2023-02-22T07:28:05;23.33;;;16.00;;
11453;SDS011;5783;55.174;61.310;2023-02-22T07:30:36;23.60;;;16.80;;
11453;SDS011;5783;55.174;61.310;2023-02-22T07:33:06;24.27;;;16.37;;
11453;SDS011;5783;55.174;61.310;2023-02-22T07:38:26;21.33;;;14.70;;
11453;SDS011;5783;55.174;61.310;2023-02-22T07:40:55;21.93;;;15.20;;
11453;SDS011;5783;55.174;61.310;2023-02-22T07:43:25;22.67;;;15.27;;
11453;SDS011;5783;55.174;61.310;2023-02-22T07:45:57;19.63;;;14.60;;
11453;SDS011;5783;55.174;61.310;2023-02-22T07:48:30;19.03;;;13.90;;
11453;SDS011;5783;55.174;61.310;2023-02-22T07:50:59;18.73;;;13.10;;
11453;SDS011;5783;55.174;61.310;2023-02-22T07:53:29;17.40;;;13.10;;
11453;SDS011;5783;55.174;61.310;2023-02-22T07:56:00;18.10;;;13.07;;
11453;SDS011;5783;55.174;61.310;2023-02-22T07:58:33;17.90;;;12.03;;
11453;SDS011;5783;55.174;61.310;2023-02-22T08:01:02;15.90;;;12.10;;
11453;SDS011;5783;55.174;61.310;2023-02-22T08:03:33;17.53;;;12.17;;
11453;SDS011;5783;55.174;61.310;2023-02-22T08:06:03;18.57;;;12.03;;
11453;SDS011;5783;55.174;61.310;2023-02-22T08:08:34;15.37;;;11.13;;
11453;SDS011;5783;55.174;61.310;2023-02-22T08:11:03;15.13;;;11.10;;
11453;SDS011;5783;55.174;61.310;2023-02-22T08:13:32;13.50;;;10.30;;
11453;SDS011;5783;55.174;61.310;2023-02-22T08:16:02;16.00;;;10.53;;
11453;SDS011;5783;55.174;61.310;2023-02-22T08:18:31;13.03;;;10.50;;
11453;SDS011;5783;55.174;61.310;2023-02-22T08:21:02;15.97;;;10.47;;
11453;SDS011;5783;55.174;61.310;2023-02-22T08:23:31;15.13;;;10.97;;
11453;SDS011;5783;55.174;61.310;2023-02-22T08:28:50;15.13;;;10.57;;
11453;SDS011;5783;55.174;61.310;2023-02-22T08:31:19;14.13;;;9.87;;
11453;SDS011;5783;55.174;61.310;2023-02-22T08:33:48;13.13;;;9.63;;
11453;SDS011;5783;55.174;61.310;2023-02-22T08:36:18;12.97;;;9.33;;
11453;SDS011;5783;55.174;61.310;2023-02-22T08:38:47;14.70;;;10.43;;
11453;SDS011;5783;55.174;61.310;2023-02-22T08:41:16;11.63;;;8.97;;
11453;SDS011;5783;55.174;61.310;2023-02-22T08:43:45;13.50;;;9.80;;
11453;SDS011;5783;55.174;61.310;2023-02-22T08:49:03;11.63;;;9.03;;
11453;SDS011;5783;55.174;61.310;2023-02-22T08:51:35;13.20;;;9.00;;
11453;SDS011;5783;55.174;61.310;2023-02-22T08:54:04;12.37;;;8.87;;
11453;SDS011;5783;55.174;61.310;2023-02-22T08:56:33;12.57;;;9.10;;
11453;SDS011;5783;55.174;61.310;2023-02-22T08:59:03;11.50;;;8.73;;
11453;SDS011;5783;55.174;61.310;2023-02-22T09:01:32;12.67;;;8.67;;
11453;SDS011;5783;55.174;61.310;2023-02-22T09:04:01;13.53;;;9.60;;
11453;SDS011;5783;55.174;61.310;2023-02-22T09:06:30;13.00;;;9.33;;
11453;SDS011;5783;55.174;61.310;2023-02-22T09:09:00;10.80;;;8.90;;
11453;SDS011;5783;55.174;61.310;2023-02-22T09:11:29;12.13;;;8.57;;
11453;SDS011;5783;55.174;61.310;2023-02-22T09:13:59;11.20;;;8.63;;
11453;SDS011;5783;55.174;61.310;2023-02-22T09:16:28;12.87;;;8.73;;
11453;SDS011;5783;55.174;61.310;2023-02-22T09:18:58;12.57;;;8.97;;
11453;SDS011;5783;55.174;61.310;2023-02-22T09:21:27;12.00;;;8.77;;
11453;SDS011;5783;55.174;61.310;2023-02-22T09:23:56;13.00;;;8.67;;
11453;SDS011;5783;55.174;61.310;2023-02-22T09:26:27;10.83;;;8.33;;
11453;SDS011;5783;55.174;61.310;2023-02-22T09:28:56;11.97;;;8.90;;
11453;SDS011;5783;55.174;61.310;2023-02-22T09:31:25;12.23;;;8.80;;
11453;SDS011;5783;55.174;61.310;2023-02-22T09:33:54;12.43;;;8.93;;
11453;SDS011;5783;55.174;61.310;2023-02-22T09:36:24;13.93;;;9.33;;
11453;SDS011;5783;55.174;61.310;2023-02-22T09:38:53;11.63;;;8.83;;
11453;SDS011;5783;55.174;61.310;2023-02-22T09:47:23;16.93;;;9.90;;
11453;SDS011;5783;55.174;61.310;2023-02-22T09:55:37;16.13;;;10.23;;
11453;SDS011;5783;55.174;61.310;2023-02-22T10:10:13;14.77;;;9.67;;
11453;SDS011;5783;55.174;61.310;2023-02-22T10:15:50;12.97;;;9.47;;
11453;SDS011;5783;55.174;61.310;2023-02-22T10:27:47;13.40;;;9.30;;
11453;SDS011;5783;55.174;61.310;2023-02-22T10:30:38;12.67;;;9.70;;
11453;SDS011;5783;55.174;61.310;2023-02-22T10:36:19;13.70;;;9.30;;
11453;SDS011;5783;55.174;61.310;2023-02-22T10:41:42;12.10;;;9.33;;
11453;SDS011;5783;55.174;61.310;2023-02-22T10:44:12;13.07;;;8.60;;
11453;SDS011;5783;55.174;61.310;2023-02-22T10:46:42;10.13;;;8.10;;
11453;SDS011;5783;55.174;61.310;2023-02-22T10:49:11;11.50;;;8.27;;
11453;SDS011;5783;55.174;61.310;2023-02-22T10:52:03;11.47;;;7.97;;
11453;SDS011;5783;55.174;61.310;2023-02-22T10:54:35;11.70;;;8.37;;
11453;SDS011;5783;55.174;61.310;2023-02-22T10:57:06;11.53;;;8.47;;
11453;SDS011;5783;55.174;61.310;2023-02-22T10:59:37;10.67;;;8.57;;
11453;SDS011;5783;55.174;61.310;2023-02-22T11:05:00;13.37;;;9.03;;
11453;SDS011;5783;55.174;61.310;2023-02-22T11:07:33;15.07;;;9.20;;
11453;SDS011;5783;55.174;61.310;2023-02-22T11:10:04;13.80;;;10.37;;
11453;SDS011;5783;55.174;61.310;2023-02-22T11:15:27;14.10;;;10.43;;
11453;SDS011;5783;55.174;61.310;2023-02-22T11:17:56;15.30;;;11.07;;
11453;SDS011;5783;55.174;61.310;2023-02-22T11:20:27;15.27;;;10.77;;
11453;SDS011;5783;55.174;61.310;2023-02-22T11:23:00;15.00;;;10.83;;
11453;SDS011;5783;55.174;61.310;2023-02-22T11:25:34;14.37;;;10.90;;
11453;SDS011;5783;55.174;61.310;2023-02-22T11:28:07;16.70;;;12.00;;
11453;SDS011;5783;55.174;61.310;2023-02-22T11:36:40;14.10;;;10.90;;
11453;SDS011;5783;55.174;61.310;2023-02-22T11:45:10;12.50;;;10.27;;
11453;SDS011;5783;55.174;61.310;2023-02-22T11:50:34;14.07;;;10.57;;
11453;SDS011;5783;55.174;61.310;2023-02-22T12:11:10;12.73;;;9.40;;
11453;SDS011;5783;55.174;61.310;2023-02-22T12:17:09;13.03;;;9.40;;
11453;SDS011;5783;55.174;61.310;2023-02-22T12:25:04;15.00;;;10.20;;
11453;SDS011;5783;55.174;61.310;2023-02-22T12:27:53;13.27;;;10.20;;
11453;SDS011;5783;55.174;61.310;2023-02-22T12:30:43;13.97;;;9.87;;
11453;SDS011;5783;55.174;61.310;2023-02-22T12:36:30;14.67;;;10.30;;
11453;SDS011;5783;55.174;61.310;2023-02-22T12:47:13;14.57;;;10.60;;
11453;SDS011;5783;55.174;61.310;2023-02-22T12:56:01;14.37;;;10.60;;
11453;SDS011;5783;55.174;61.310;2023-02-22T13:04:30;12.53;;;9.50;;
11453;SDS011;5783;55.174;61.310;2023-02-22T13:19:00;13.40;;;10.10;;
11453;SDS011;5783;55.174;61.310;2023-02-22T13:21:33;12.47;;;9.80;;
11453;SDS011;5783;55.174;61.310;2023-02-22T13:28:01;13.90;;;10.00;;
11453;SDS011;5783;55.174;61.310;2023-02-22T13:57:27;10.43;;;7.73;;
11453;SDS011;5783;55.174;61.310;2023-02-22T14:08:49;9.67;;;7.67;;
11453;SDS011;5783;55.174;61.310;2023-02-22T14:16:26;11.10;;;8.80;;
11453;SDS011;5783;55.174;61.310;2023-02-22T14:27:37;11.60;;;8.07;;
11453;SDS011;5783;55.174;61.310;2023-02-22T14:29:59;10.57;;;7.80;;
11453;SDS011;5783;55.174;61.310;2023-02-22T14:32:31;10.97;;;7.80;;
11453;SDS011;5783;55.174;61.310;2023-02-22T14:35:05;9.80;;;7.77;;
11453;SDS011;5783;55.174;61.310;2023-02-22T14:40:29;10.13;;;7.03;;
11453;SDS011;5783;55.174;61.310;2023-02-22T14:45:35;8.47;;;7.20;;
11453;SDS011;5783;55.174;61.310;2023-02-22T14:51:18;8.53;;;7.10;;
11453;SDS011;5783;55.174;61.310;2023-02-22T14:53:50;9.23;;;6.77;;
11453;SDS011;5783;55.174;61.310;2023-02-22T15:02:59;8.47;;;6.87;;
11453;SDS011;5783;55.174;61.310;2023-02-22T15:08:18;10.07;;;7.40;;
11453;SDS011;5783;55.174;61.310;2023-02-22T15:10:49;10.60;;;7.67;;
11453;SDS011;5783;55.174;61.310;2023-02-22T15:19:02;8.03;;;6.37;;
11453;SDS011;5783;55.174;61.310;2023-02-22T15:25:01;7.97;;;6.03;;
11453;SDS011;5783;55.174;61.310;2023-02-22T15:27:33;7.57;;;6.17;;
11453;SDS011;5783;55.174;61.310;2023-02-22T15:30:04;8.50;;;6.13;;
11453;SDS011;5783;55.174;61.310;2023-02-22T15:32:53;7.53;;;5.97;;
11453;SDS011;5783;55.174;61.310;2023-02-22T15:40:47;7.57;;;6.13;;
11453;SDS011;5783;55.174;61.310;2023-02-22T15:43:20;10.03;;;6.50;;
11453;SDS011;5783;55.174;61.310;2023-02-22T15:45:51;8.00;;;6.30;;
11453;SDS011;5783;55.174;61.310;2023-02-22T15:48:22;6.87;;;5.83;;
11453;SDS011;5783;55.174;61.310;2023-02-22T15:59:06;8.37;;;6.53;;
11453;SDS011;5783;55.174;61.310;2023-02-22T16:01:55;8.00;;;5.73;;
11453;SDS011;5783;55.174;61.310;2023-02-22T16:04:26;7.73;;;6.00;;
11453;SDS011;5783;55.174;61.310;2023-02-22T16:09:47;8.00;;;6.40;;
11453;SDS011;5783;55.174;61.310;2023-02-22T16:15:13;7.70;;;5.90;;
11453;SDS011;5783;55.174;61.310;2023-02-22T16:17:39;8.40;;;6.43;;
11453;SDS011;5783;55.174;61.310;2023-02-22T16:22:57;7.60;;;6.30;;
11453;SDS011;5783;55.174;61.310;2023-02-22T16:31:07;8.43;;;6.70;;
11453;SDS011;5783;55.174;61.310;2023-02-22T16:33:37;7.20;;;6.40;;
11453;SDS011;5783;55.174;61.310;2023-02-22T16:36:06;7.43;;;6.03;;
11453;SDS011;5783;55.174;61.310;2023-02-22T16:38:35;7.40;;;6.60;;
11453;SDS011;5783;55.174;61.310;2023-02-22T16:41:06;7.07;;;6.07;;
11453;SDS011;5783;55.174;61.310;2023-02-22T16:43:36;8.53;;;6.57;;
11453;SDS011;5783;55.174;61.310;2023-02-22T16:46:05;7.20;;;6.03;;
11453;SDS011;5783;55.174;61.310;2023-02-22T16:48:34;7.27;;;5.80;;
11453;SDS011;5783;55.174;61.310;2023-02-22T16:53:53;7.60;;;6.37;;
11453;SDS011;5783;55.174;61.310;2023-02-22T16:58:59;7.33;;;6.30;;
11453;SDS011;5783;55.174;61.310;2023-02-22T17:01:30;7.10;;;5.97;;
11453;SDS011;5783;55.174;61.310;2023-02-22T17:04:00;6.50;;;5.80;;
11453;SDS011;5783;55.174;61.310;2023-02-22T17:06:29;8.10;;;6.43;;
11453;SDS011;5783;55.174;61.310;2023-02-22T17:08:58;8.63;;;6.33;;
11453;SDS011;5783;55.174;61.310;2023-02-22T17:11:27;7.17;;;6.10;;
11453;SDS011;5783;55.174;61.310;2023-02-22T17:13:57;7.60;;;6.30;;
11453;SDS011;5783;55.174;61.310;2023-02-22T17:16:26;7.53;;;6.13;;
11453;SDS011;5783;55.174;61.310;2023-02-22T17:18:55;7.20;;;6.00;;
11453;SDS011;5783;55.174;61.310;2023-02-22T17:21:24;6.70;;;5.77;;
11453;SDS011;5783;55.174;61.310;2023-02-22T17:23:53;9.50;;;6.17;;
11453;SDS011;5783;55.174;61.310;2023-02-22T17:26:23;8.33;;;6.07;;
11453;SDS011;5783;55.174;61.310;2023-02-22T17:28:53;6.77;;;5.47;;
11453;SDS011;5783;55.174;61.310;2023-02-22T17:31:23;7.87;;;6.20;;
11453;SDS011;5783;55.174;61.310;2023-02-22T17:33:55;8.20;;;6.40;;
11453;SDS011;5783;55.174;61.310;2023-02-22T17:36:28;6.80;;;5.60;;
11453;SDS011;5783;55.174;61.310;2023-02-22T17:39:01;7.73;;;6.10;;
11453;SDS011;5783;55.174;61.310;2023-02-22T17:41:31;6.37;;;5.50;;
11453;SDS011;5783;55.174;61.310;2023-02-22T17:44:00;6.43;;;5.70;;
11453;SDS011;5783;55.174;61.310;2023-02-22T17:46:30;7.03;;;5.70;;
11453;SDS011;5783;55.174;61.310;2023-02-22T17:48:59;6.53;;;5.83;;
11453;SDS011;5783;55.174;61.310;2023-02-22T17:51:28;8.27;;;6.13;;
11453;SDS011;5783;55.174;61.310;2023-02-22T17:53:57;6.93;;;5.50;;
11453;SDS011;5783;55.174;61.310;2023-02-22T17:59:01;7.03;;;6.00;;
11453;SDS011;5783;55.174;61.310;2023-02-22T18:01:33;7.30;;;5.53;;
11453;SDS011;5783;55.174;61.310;2023-02-22T18:04:22;6.37;;;5.50;;
11453;SDS011;5783;55.174;61.310;2023-02-22T18:06:51;6.73;;;5.40;;
11453;SDS011;5783;55.174;61.310;2023-02-22T18:09:22;6.97;;;5.57;;
11453;SDS011;5783;55.174;61.310;2023-02-22T18:11:51;6.30;;;5.43;;
11453;SDS011;5783;55.174;61.310;2023-02-22T18:14:20;6.80;;;5.63;;
11453;SDS011;5783;55.174;61.310;2023-02-22T18:16:49;6.97;;;5.40;;
11453;SDS011;5783;55.174;61.310;2023-02-22T18:19:19;6.90;;;5.37;;
11453;SDS011;5783;55.174;61.310;2023-02-22T18:21:48;6.73;;;5.50;;
11453;SDS011;5783;55.174;61.310;2023-02-22T18:24:17;5.93;;;5.27;;
11453;SDS011;5783;55.174;61.310;2023-02-22T18:26:46;6.43;;;5.60;;
11453;SDS011;5783;55.174;61.310;2023-02-22T18:29:15;6.77;;;5.60;;
11453;SDS011;5783;55.174;61.310;2023-02-22T18:31:44;7.43;;;5.97;;
11453;SDS011;5783;55.174;61.310;2023-02-22T18:34:13;5.47;;;4.97;;
11453;SDS011;5783;55.174;61.310;2023-02-22T18:36:43;6.57;;;5.63;;
11453;SDS011;5783;55.174;61.310;2023-02-22T18:39:13;7.60;;;5.43;;
11453;SDS011;5783;55.174;61.310;2023-02-22T18:41:42;6.90;;;5.20;;
11453;SDS011;5783;55.174;61.310;2023-02-22T18:44:14;6.77;;;5.40;;
11453;SDS011;5783;55.174;61.310;2023-02-22T18:46:43;6.80;;;5.27;;
11453;SDS011;5783;55.174;61.310;2023-02-22T18:49:12;6.03;;;5.30;;
11453;SDS011;5783;55.174;61.310;2023-02-22T18:51:42;6.87;;;5.40;;
11453;SDS011;5783;55.174;61.310;2023-02-22T18:54:11;6.83;;;5.70;;
11453;SDS011;5783;55.174;61.310;2023-02-22T18:56:40;6.43;;;5.37;;
11453;SDS011;5783;55.174;61.310;2023-02-22T18:59:10;6.53;;;5.30;;
11453;SDS011;5783;55.174;61.310;2023-02-22T19:01:40;7.07;;;5.80;;
11453;SDS011;5783;55.174;61.310;2023-02-22T19:04:10;6.23;;;5.10;;
11453;SDS011;5783;55.174;61.310;2023-02-22T19:06:39;6.57;;;5.50;;
11453;SDS011;5783;55.174;61.310;2023-02-22T19:09:10;7.57;;;5.40;;
11453;SDS011;5783;55.174;61.310;2023-02-22T19:11:39;6.50;;;5.27;;
11453;SDS011;5783;55.174;61.310;2023-02-22T19:14:10;6.20;;;5.40;;
11453;SDS011;5783;55.174;61.310;2023-02-22T19:16:41;6.27;;;5.37;;
11453;SDS011;5783;55.174;61.310;2023-02-22T19:19:30;6.53;;;5.03;;
11453;SDS011;5783;55.174;61.310;2023-02-22T19:21:59;6.00;;;5.27;;
11453;SDS011;5783;55.174;61.310;2023-02-22T19:24:28;6.47;;;5.57;;
11453;SDS011;5783;55.174;61.310;2023-02-22T19:27:19;7.13;;;5.60;;
11453;SDS011;5783;55.174;61.310;2023-02-22T19:29:49;5.70;;;4.83;;
11453;SDS011;5783;55.174;61.310;2023-02-22T19:32:38;6.40;;;5.27;;
11453;SDS011;5783;55.174;61.310;2023-02-22T19:35:09;6.50;;;5.57;;
11453;SDS011;5783;55.174;61.310;2023-02-22T19:37:39;6.57;;;5.40;;
11453;SDS011;5783;55.174;61.310;2023-02-22T19:40:10;5.40;;;4.87;;
11453;SDS011;5783;55.174;61.310;2023-02-22T19:42:41;6.03;;;5.07;;
11453;SDS011;5783;55.174;61.310;2023-02-22T19:45:10;5.67;;;4.97;;
11453;SDS011;5783;55.174;61.310;2023-02-22T19:47:39;6.60;;;5.40;;
11453;SDS011;5783;55.174;61.310;2023-02-22T19:50:10;6.43;;;4.87;;
11453;SDS011;5783;55.174;61.310;2023-02-22T19:52:40;5.87;;;5.17;;
11453;SDS011;5783;55.174;61.310;2023-02-22T19:55:09;6.20;;;4.90;;
11453;SDS011;5783;55.174;61.310;2023-02-22T19:57:41;6.80;;;5.50;;
11453;SDS011;5783;55.174;61.310;2023-02-22T20:00:12;6.23;;;5.30;;
11453;SDS011;5783;55.174;61.310;2023-02-22T20:02:43;6.90;;;5.47;;
11453;SDS011;5783;55.174;61.310;2023-02-22T20:05:13;5.83;;;5.07;;
11453;SDS011;5783;55.174;61.310;2023-02-22T20:07:42;7.07;;;5.10;;
11453;SDS011;5783;55.174;61.310;2023-02-22T20:10:11;6.57;;;4.97;;
11453;SDS011;5783;55.174;61.310;2023-02-22T20:12:43;5.90;;;4.90;;